createdAt,value
2017-12-06T06:51:25.475Z,18.36
2017-12-06T06:51:25.995Z,18.21
2017-12-06T06:51:26.513Z,18.28
2017-12-06T06:51:27.079Z,18.28
2017-12-06T06:51:27.621Z,18.23
2017-12-06T06:51:28.157Z,18.29
2017-12-06T06:51:28.675Z,18.17
2017-12-06T06:51:29.222Z,18.16
2017-12-06T06:52:22.749Z,14.64
2017-12-06T06:52:23.267Z,14.59
2017-12-06T06:52:23.837Z,14.67
2017-12-06T06:52:24.389Z,14.63
2017-12-06T06:52:24.970Z,14.54
2017-12-06T06:52:25.510Z,14.64
2017-12-06T06:52:26.092Z,14.48
2017-12-06T06:52:26.630Z,14.53
2017-12-06T06:52:27.206Z,14.52
2017-12-06T06:53:21.825Z,12.56
2017-12-06T06:53:22.404Z,12.55
2017-12-06T06:53:22.930Z,12.59
2017-12-06T06:53:23.449Z,12.59
2017-12-06T06:53:24.015Z,12.61
2017-12-06T06:53:24.559Z,12.49
2017-12-06T06:53:25.142Z,12.52
2017-12-06T06:53:25.683Z,12.56
2017-12-06T06:54:19.826Z,11.08
2017-12-06T06:54:20.357Z,11.08
2017-12-06T06:54:20.878Z,11.01
2017-12-06T06:54:21.387Z,11.03
2017-12-06T06:54:21.921Z,10.99
2017-12-06T06:54:22.439Z,11.01
2017-12-06T06:54:22.991Z,10.88
2017-12-06T06:54:23.483Z,10.90
2017-12-06T06:54:24.021Z,10.91
2017-12-06T06:55:18.010Z,9.98
2017-12-06T06:55:18.520Z,9.98
2017-12-06T06:55:19.052Z,9.95
2017-12-06T06:55:19.577Z,9.95
2017-12-06T06:55:20.245Z,10.02
2017-12-06T06:55:20.736Z,9.93
2017-12-06T06:55:21.261Z,9.86
2017-12-06T06:55:21.781Z,9.89
2017-12-06T06:56:15.755Z,9.24
2017-12-06T06:56:16.284Z,9.27
2017-12-06T06:56:16.848Z,9.19
2017-12-06T06:56:17.403Z,9.23
2017-12-06T06:56:17.925Z,9.22
2017-12-06T06:56:18.444Z,9.19
2017-12-06T06:56:19.001Z,9.13
2017-12-06T06:56:19.569Z,9.12
2017-12-06T06:57:13.085Z,8.67
2017-12-06T06:57:13.651Z,8.68
2017-12-06T06:57:14.184Z,8.67
2017-12-06T06:57:14.721Z,8.65
2017-12-06T06:57:15.261Z,8.60
2017-12-06T06:57:15.824Z,8.60
2017-12-06T06:57:16.338Z,8.65
2017-12-06T06:57:16.874Z,8.58
2017-12-06T06:57:17.404Z,8.65
2017-12-06T06:58:22.182Z,8.06
2017-12-06T06:58:22.721Z,7.96
2017-12-06T06:58:23.228Z,8.03
2017-12-06T06:58:23.799Z,8.09
2017-12-06T06:58:24.347Z,8.06
2017-12-06T06:58:24.937Z,8.10
2017-12-06T06:58:25.473Z,8.06
2017-12-06T06:58:26.002Z,7.99
2017-12-06T06:58:26.511Z,8.03
2017-12-06T07:00:12.206Z,7.50
2017-12-06T07:00:12.733Z,7.52
2017-12-06T07:00:13.313Z,7.51
2017-12-06T07:00:13.844Z,7.41
2017-12-06T07:00:14.439Z,7.41
2017-12-06T07:00:14.927Z,7.51
2017-12-06T07:00:15.463Z,7.52
2017-12-06T07:00:16.010Z,7.48
2017-12-06T07:01:09.529Z,7.41
2017-12-06T07:01:10.091Z,7.41
2017-12-06T07:01:10.613Z,7.30
2017-12-06T07:01:11.153Z,7.39
2017-12-06T07:01:11.668Z,7.42
2017-12-06T07:01:12.222Z,7.44
2017-12-06T07:01:12.772Z,7.41
2017-12-06T07:01:13.340Z,7.33
2017-12-06T07:01:13.906Z,7.32
2017-12-06T07:02:08.511Z,7.27
2017-12-06T07:02:09.025Z,7.21
2017-12-06T07:02:09.563Z,7.23
2017-12-06T07:02:10.093Z,7.24
2017-12-06T07:02:10.617Z,7.30
2017-12-06T07:02:11.175Z,7.26
2017-12-06T07:02:11.715Z,7.23
2017-12-06T07:02:12.308Z,7.26
2017-12-06T07:03:57.265Z,7.07
2017-12-06T07:03:57.810Z,7.11
2017-12-06T07:03:58.305Z,7.14
2017-12-06T07:03:58.813Z,7.15
2017-12-06T07:03:59.339Z,7.07
2017-12-06T07:03:59.873Z,7.12
2017-12-06T07:04:00.379Z,7.14
2017-12-06T07:04:00.977Z,7.18
2017-12-06T07:04:54.502Z,7.12
2017-12-06T07:04:55.030Z,7.11
2017-12-06T07:04:55.565Z,7.12
2017-12-06T07:04:56.090Z,7.11
2017-12-06T07:04:56.703Z,7.12
2017-12-06T07:04:57.255Z,7.11
2017-12-06T07:04:57.834Z,7.14
2017-12-06T07:04:58.375Z,7.16
2017-12-06T07:04:58.892Z,7.19
2017-12-06T12:18:16.794Z,13.09
2017-12-06T12:18:17.318Z,13.09
2017-12-06T12:18:17.836Z,13.09
2017-12-06T12:18:18.368Z,13.10
2017-12-06T12:18:18.890Z,13.03
2017-12-06T12:18:19.418Z,13.07
2017-12-06T12:19:13.409Z,12.23
2017-12-06T12:19:13.916Z,12.29
2017-12-06T12:19:14.433Z,12.33
2017-12-06T12:19:14.994Z,12.25
2017-12-06T12:19:15.526Z,12.26
2017-12-06T12:19:16.066Z,12.22
2017-12-06T12:19:16.597Z,12.23
2017-12-06T12:19:17.174Z,12.19
2017-12-06T12:20:11.184Z,11.53
2017-12-06T12:20:11.721Z,11.48
2017-12-06T12:20:12.320Z,11.54
2017-12-06T12:20:12.754Z,11.54
2017-12-06T12:20:13.317Z,11.48
2017-12-06T12:20:13.785Z,11.42
2017-12-06T12:20:14.372Z,11.44
2017-12-06T12:20:14.913Z,11.41
2017-12-06T12:21:08.388Z,10.88
2017-12-06T12:21:08.963Z,10.88
2017-12-06T12:21:09.483Z,10.80
2017-12-06T12:21:10.003Z,10.90
2017-12-06T12:21:10.526Z,10.86
2017-12-06T12:21:11.066Z,10.88
2017-12-06T12:21:11.601Z,10.90
2017-12-06T12:21:12.183Z,10.84
2017-12-06T12:21:12.719Z,10.90
2017-12-06T12:22:06.731Z,10.32
2017-12-06T12:22:07.249Z,10.31
2017-12-06T12:22:07.760Z,10.26
2017-12-06T12:22:08.314Z,10.28
2017-12-06T12:22:08.853Z,10.25
2017-12-06T12:22:09.416Z,10.32
2017-12-06T12:22:09.971Z,10.31
2017-12-06T12:22:10.484Z,10.22
2017-12-06T12:23:04.471Z,9.95
2017-12-06T12:23:05.030Z,9.92
2017-12-06T12:23:05.553Z,9.92
2017-12-06T12:23:06.081Z,9.93
2017-12-06T12:23:06.608Z,9.88
2017-12-06T12:23:07.146Z,9.88
2017-12-06T12:23:07.708Z,9.89
2017-12-06T12:23:08.276Z,9.78
2017-12-06T12:24:02.278Z,9.59
2017-12-06T12:24:02.816Z,9.67
2017-12-06T12:24:03.382Z,9.56
2017-12-06T12:24:03.941Z,9.59
2017-12-06T12:24:04.502Z,9.60
2017-12-06T12:24:05.032Z,9.59
2017-12-06T12:24:05.548Z,9.55
2017-12-06T12:24:06.120Z,9.60
2017-12-06T12:25:00.043Z,9.30
2017-12-06T12:25:00.574Z,9.35
2017-12-06T12:25:01.068Z,9.30
2017-12-06T12:25:01.586Z,9.35
2017-12-06T12:25:02.105Z,9.31
2017-12-06T12:25:02.757Z,9.34
2017-12-06T12:25:03.215Z,9.35
2017-12-06T12:25:03.746Z,9.35
2017-12-06T12:25:57.680Z,9.16
2017-12-06T12:25:58.165Z,9.00
2017-12-06T12:25:58.697Z,9.08
2017-12-06T12:25:59.207Z,9.04
2017-12-06T12:25:59.746Z,9.20
2017-12-06T12:26:00.265Z,9.20
2017-12-06T12:26:00.797Z,9.10
2017-12-06T12:26:01.328Z,9.13
2017-12-06T15:52:10.247Z,15.53
2017-12-06T15:52:10.757Z,15.40
2017-12-06T15:52:11.292Z,15.49
2017-12-06T15:52:11.823Z,15.48
2017-12-06T15:52:12.421Z,15.44
2017-12-06T15:52:12.858Z,15.44
2017-12-06T15:52:13.450Z,15.34
2017-12-06T15:52:13.879Z,15.35
2017-12-06T15:53:07.219Z,14.59
2017-12-06T15:53:07.701Z,14.59
2017-12-06T15:53:08.220Z,14.59
2017-12-06T15:53:08.753Z,14.52
2017-12-06T15:53:09.260Z,14.53
2017-12-06T15:53:09.916Z,14.48
2017-12-06T15:53:10.389Z,14.56
2017-12-06T15:53:10.880Z,14.53
2017-12-06T15:54:24.386Z,13.06
2017-12-06T15:54:24.900Z,13.07
2017-12-06T15:54:25.439Z,13.06
2017-12-06T15:54:26.021Z,12.99
2017-12-06T15:54:26.493Z,13.07
2017-12-06T15:54:27.012Z,13.03
2017-12-06T15:54:27.532Z,13.01
2017-12-06T15:54:28.086Z,13.01
2017-12-06T15:54:28.631Z,12.96
2017-12-06T15:55:22.091Z,11.88
2017-12-06T15:55:22.645Z,11.88
2017-12-06T15:55:23.159Z,11.85
2017-12-06T15:55:23.691Z,11.82
2017-12-06T15:55:24.235Z,11.72
2017-12-06T15:55:24.893Z,11.79
2017-12-06T15:55:25.409Z,11.77
2017-12-06T15:56:19.413Z,10.94
2017-12-06T15:56:19.952Z,10.90
2017-12-06T15:56:20.518Z,10.90
2017-12-06T15:56:21.086Z,10.93
2017-12-06T15:56:21.657Z,10.90
2017-12-06T15:56:22.206Z,10.86
2017-12-06T15:56:22.723Z,10.90
2017-12-06T15:56:23.242Z,10.87
2017-12-06T15:57:17.237Z,10.16
2017-12-06T15:57:17.773Z,10.11
2017-12-06T15:57:18.352Z,10.14
2017-12-06T15:57:18.903Z,10.10
2017-12-06T15:57:19.463Z,10.14
2017-12-06T15:57:20.043Z,10.11
2017-12-06T15:57:20.586Z,10.10
2017-12-06T15:57:21.109Z,10.13
2017-12-06T15:58:15.246Z,9.68
2017-12-06T15:58:15.767Z,9.59
2017-12-06T15:58:16.286Z,9.59
2017-12-06T15:58:16.824Z,9.62
2017-12-06T15:58:17.349Z,9.70
2017-12-06T15:58:17.868Z,9.58
2017-12-06T15:58:18.401Z,9.62
2017-12-06T15:58:18.931Z,9.59
2017-12-06T15:58:19.464Z,9.68
2017-12-06T15:59:13.493Z,9.24
2017-12-06T15:59:14.015Z,9.22
2017-12-06T15:59:14.534Z,9.24
2017-12-06T15:59:15.055Z,9.26
2017-12-06T15:59:15.595Z,9.20
2017-12-06T15:59:16.129Z,9.17
2017-12-06T15:59:16.659Z,9.20
2017-12-06T15:59:17.196Z,9.20
